Time;durP1;ratioP1;P1;durP2;ratioP2;P2;SDS_P1;SDS_P2;PMS_P1;PMS_P2;Temp;Humidity;BMP_temperature;BMP_pressure;BME280_temperature;BME280_humidity;BME280_pressure;Samples;Min_cycle;Max_cycle;Signal;HPM_P1;HPM_P2
2023/03/18 00:02:24;;;;;;;20.35;9.00;;;;;;;11.21;84.71;100583.19;5041879;28;20033;-77
2023/03/18 00:04:50;;;;;;;22.33;8.98;;;;;;;11.17;84.10;100582.59;5052286;28;20055;-77
2023/03/18 00:07:16;;;;;;;23.75;8.10;;;;;;;11.11;85.27;100583.09;5050209;28;20032;-77
2023/03/18 00:09:41;;;;;;;21.65;8.68;;;;;;;11.04;85.58;100584.56;5049196;28;20037;-77
2023/03/18 00:12:07;;;;;;;22.70;9.90;;;;;;;10.98;86.13;100598.47;5058035;28;20416;-77
2023/03/18 00:14:35;;;;;;;23.05;9.57;;;;;;;10.92;86.16;100590.91;5067849;28;20033;-77
2023/03/18 00:17:00;;;;;;;22.55;9.90;;;;;;;10.87;87.51;100598.47;5040482;28;20078;-77
2023/03/18 00:19:26;;;;;;;21.00;9.02;;;;;;;10.79;87.26;100586.50;5046895;28;20437;-76
2023/03/18 00:21:51;;;;;;;23.10;8.93;;;;;;;10.76;88.34;100593.94;5061832;28;20016;-76
2023/03/18 00:24:16;;;;;;;22.63;9.43;;;;;;;10.73;87.79;100600.44;5053497;28;20021;-77
2023/03/18 00:26:43;;;;;;;22.00;8.30;;;;;;;10.69;88.56;100603.44;5056893;28;20395;-76
2023/03/18 00:29:09;;;;;;;22.27;9.65;;;;;;;10.67;89.01;100608.94;5061069;28;20826;-77
2023/03/18 00:31:35;;;;;;;24.27;9.43;;;;;;;10.68;89.15;100607.13;5054226;28;20032;-76
2023/03/18 00:34:00;;;;;;;21.35;9.38;;;;;;;10.72;88.57;100609.47;5048411;28;20109;-77
2023/03/18 00:36:26;;;;;;;24.42;11.30;;;;;;;10.77;88.41;100612.63;5053456;28;20430;-76
2023/03/18 00:38:56;;;;;;;25.00;9.57;;;;;;;10.81;88.26;100603.34;5063914;28;20027;-77
2023/03/18 00:41:24;;;;;;;21.42;9.23;;;;;;;10.84;87.77;100608.47;5060493;28;20060;-77
2023/03/18 00:43:53;;;;;;;23.40;9.18;;;;;;;10.84;88.04;100610.31;5059098;28;20028;-77
2023/03/18 00:46:31;;;;;;;22.90;9.65;;;;;;;10.86;87.87;100605.69;5056576;28;20039;-77
2023/03/18 00:48:59;;;;;;;25.05;9.50;;;;;;;10.85;88.89;100620.13;5057014;28;20425;-76
2023/03/18 00:51:26;;;;;;;22.33;9.20;;;;;;;10.86;87.95;100624.50;5055422;28;20016;-76
2023/03/18 00:53:56;;;;;;;22.40;9.98;;;;;;;10.86;88.11;100621.81;5048412;28;20166;-76
2023/03/18 00:56:26;;;;;;;26.08;10.63;;;;;;;10.88;88.28;100625.25;5043823;28;20044;-76
2023/03/18 00:58:52;;;;;;;28.52;9.95;;;;;;;10.88;88.51;100619.88;5048518;28;20496;-77
2023/03/18 01:01:19;;;;;;;20.48;9.10;;;;;;;10.89;88.37;100626.09;5042527;28;20040;-76
2023/03/18 01:03:45;;;;;;;23.98;9.80;;;;;;;10.91;88.36;100624.13;5043803;28;20334;-76
2023/03/18 01:06:13;;;;;;;21.50;9.77;;;;;;;10.93;88.26;100622.19;5041287;28;20040;-76
2023/03/18 01:08:40;;;;;;;21.70;9.30;;;;;;;10.94;88.90;100618.53;5042616;28;20028;-76
2023/03/18 01:11:06;;;;;;;22.75;9.77;;;;;;;10.95;88.83;100613.03;5041892;28;20036;-76
2023/03/18 01:13:32;;;;;;;25.17;10.13;;;;;;;10.96;89.27;100619.25;5045775;28;20024;-76
2023/03/18 01:15:58;;;;;;;24.80;10.20;;;;;;;10.97;89.63;100615.59;5042847;28;20025;-76
2023/03/18 01:18:26;;;;;;;26.33;10.48;;;;;;;10.97;90.68;100610.22;5042256;28;20075;-76
2023/03/18 01:20:53;;;;;;;23.25;10.35;;;;;;;10.98;91.38;100606.53;5049686;28;20032;-76
2023/03/18 01:23:19;;;;;;;25.65;9.82;;;;;;;10.98;91.91;100609.22;5051588;28;20480;-77
2023/03/18 01:25:44;;;;;;;23.80;9.82;;;;;;;11.00;92.42;100609.97;5057779;28;20021;-77
2023/03/18 01:28:11;;;;;;;22.95;9.85;;;;;;;10.98;93.13;100609.22;5044300;28;20560;-77
2023/03/18 01:30:37;;;;;;;23.25;9.25;;;;;;;10.98;93.78;100614.59;5065598;28;20128;-76
2023/03/18 01:33:04;;;;;;;22.83;10.05;;;;;;;10.97;94.58;100618.28;5060271;28;20488;-76
2023/03/18 01:35:31;;;;;;;26.13;11.07;;;;;;;10.95;95.93;100613.03;5054601;28;20043;-77
2023/03/18 01:37:57;;;;;;;22.60;9.82;;;;;;;10.95;96.16;100617.53;5043953;28;20028;-77
2023/03/18 01:40:23;;;;;;;26.23;11.82;;;;;;;10.92;97.23;100615.09;5045863;28;20064;-77
2023/03/18 01:43:12;;;;;;;26.35;11.63;;;;;;;10.90;97.91;100617.06;5057187;28;20051;-77
2023/03/18 01:45:37;;;;;;;22.95;10.82;;;;;;;10.88;99.46;100610.94;5058825;28;20025;-77
2023/03/18 01:48:03;;;;;;;25.88;11.75;;;;;;;10.85;100.00;100606.69;5050458;28;20440;-77
2023/03/18 01:50:34;;;;;;;26.00;12.65;;;;;;;10.82;100.00;100606.88;5059111;28;20115;-77
2023/03/18 01:53:16;;;;;;;26.45;11.15;;;;;;;10.78;100.00;100606.28;5051622;28;20028;-77
2023/03/18 01:55:44;;;;;;;24.67;12.70;;;;;;;10.77;100.00;100609.09;5051134;28;20049;-76
2023/03/18 01:58:23;;;;;;;26.70;12.13;;;;;;;10.74;100.00;100612.88;5057525;28;20431;-77
2023/03/18 02:00:54;;;;;;;34.38;12.68;;;;;;;10.72;100.00;100608.59;5045468;28;20029;-76
2023/03/18 02:03:21;;;;;;;27.13;13.35;;;;;;;10.70;100.00;100610.53;5042903;28;20491;-77
2023/03/18 02:05:48;;;;;;;26.10;12.23;;;;;;;10.65;100.00;100606.38;5052907;28;20032;-77
2023/03/18 02:08:14;;;;;;;30.23;12.90;;;;;;;10.63;100.00;100602.97;5052325;28;20020;-77
2023/03/18 02:10:39;;;;;;;24.02;13.15;;;;;;;10.61;100.00;100607.59;5055630;28;20062;-77
2023/03/18 02:13:08;;;;;;;24.73;12.15;;;;;;;10.60;100.00;100611.28;5064453;28;20028;-77
2023/03/18 02:15:41;;;;;;;27.40;13.02;;;;;;;10.59;100.00;100614.06;5057133;28;21093;-77
2023/03/18 02:18:14;;;;;;;30.20;12.20;;;;;;;10.57;100.00;100607.94;5056719;28;20052;-77
2023/03/18 02:20:58;;;;;;;29.02;14.45;;;;;;;10.57;100.00;100606.13;5053895;28;20028;-77
2023/03/18 02:23:35;;;;;;;29.90;14.07;;;;;;;10.55;100.00;100612.59;5061880;28;20024;-77
2023/03/18 02:26:16;;;;;;;27.85;12.07;;;;;;;10.54;100.00;100621.63;5053193;28;20493;-78
2023/03/18 02:28:43;;;;;;;30.05;15.05;;;;;;;10.52;100.00;100623.59;5043434;28;20043;-78
2023/03/18 02:31:11;;;;;;;27.05;13.38;;;;;;;10.48;100.00;100620.25;5053925;28;20032;-78
2023/03/18 02:33:40;;;;;;;30.15;13.35;;;;;;;10.47;100.00;100634.69;5059695;28;20046;-78
2023/03/18 02:36:12;;;;;;;29.33;14.98;;;;;;;10.45;100.00;100632.13;5050623;28;20072;-78
2023/03/18 02:38:41;;;;;;;26.42;13.95;;;;;;;10.43;100.00;100630.50;5047983;28;20037;-78
2023/03/18 02:41:13;;;;;;;27.58;14.00;;;;;;;10.42;100.00;100629.63;5057305;28;20115;-78
2023/03/18 02:43:39;;;;;;;28.73;14.45;;;;;;;10.41;100.00;100638.69;5046223;28;20036;-78
2023/03/18 02:46:35;;;;;;;25.30;14.10;;;;;;;10.40;100.00;100639.66;5055429;28;20495;-78
2023/03/18 02:49:03;;;;;;;28.23;15.45;;;;;;;10.39;100.00;100646.00;5046886;28;20051;-78
2023/03/18 02:51:29;;;;;;;29.70;15.00;;;;;;;10.38;100.00;100640.75;5052591;28;20014;-78
2023/03/18 02:54:01;;;;;;;26.73;14.75;;;;;;;10.38;100.00;100647.00;5047988;28;20027;-78
2023/03/18 02:56:26;;;;;;;27.38;13.98;;;;;;;10.37;100.00;100641.75;5052272;28;20196;-77
2023/03/18 02:58:52;;;;;;;29.90;15.43;;;;;;;10.35;100.00;100644.50;5052197;28;20148;-78
2023/03/18 03:01:18;;;;;;;33.33;14.15;;;;;;;10.34;100.00;100648.19;5054362;28;20036;-78
2023/03/18 03:03:44;;;;;;;29.92;14.65;;;;;;;10.34;100.00;100652.69;5050749;28;20560;-78
2023/03/18 03:06:09;;;;;;;27.42;14.65;;;;;;;10.32;100.00;100660.81;5061083;28;21139;-78
2023/03/18 03:08:35;;;;;;;29.85;15.57;;;;;;;10.31;100.00;100662.66;5054207;28;20016;-78
2023/03/18 03:11:01;;;;;;;28.70;13.90;;;;;;;10.31;100.00;100669.88;5053149;28;20036;-78
2023/03/18 03:13:26;;;;;;;27.02;15.60;;;;;;;10.30;100.00;100666.31;5061898;28;20078;-78
2023/03/18 03:15:52;;;;;;;28.92;14.85;;;;;;;10.30;100.00;100668.16;5048479;28;20029;-78
2023/03/18 03:18:19;;;;;;;29.27;14.23;;;;;;;10.29;100.00;100667.31;5050652;28;20386;-78
2023/03/18 03:20:44;;;;;;;31.73;15.60;;;;;;;10.27;100.00;100657.66;5056458;28;20128;-78
2023/03/18 03:23:14;;;;;;;32.45;15.52;;;;;;;10.26;100.00;100669.34;5057088;28;20120;-78
2023/03/18 03:25:40;;;;;;;29.15;15.88;;;;;;;10.25;100.00;100670.31;5058108;28;20040;-78
2023/03/18 03:28:07;;;;;;;28.08;14.85;;;;;;;10.23;100.00;100666.91;5055034;28;20384;-78
2023/03/18 03:30:34;;;;;;;27.98;15.18;;;;;;;10.23;100.00;100666.91;5054001;28;20032;-78
2023/03/18 03:33:00;;;;;;;29.65;16.25;;;;;;;10.23;100.00;100672.28;5049142;28;20025;-78
2023/03/18 03:35:26;;;;;;;30.45;16.88;;;;;;;10.23;100.00;100672.28;5041711;28;20025;-78
2023/03/18 03:37:52;;;;;;;28.60;15.38;;;;;;;10.20;100.00;100670.66;5052877;28;20029;-78
2023/03/18 03:40:19;;;;;;;28.25;16.08;;;;;;;10.21;100.00;100664.34;5047575;28;20481;-78
2023/03/18 03:42:45;;;;;;;29.48;15.38;;;;;;;10.21;100.00;100674.22;5059255;28;20446;-78
2023/03/18 03:45:12;;;;;;;28.52;15.43;;;;;;;10.20;100.00;100672.50;5057398;28;20025;-78
2023/03/18 03:47:38;;;;;;;30.85;15.82;;;;;;;10.19;100.00;100676.16;5057662;28;20433;-78
2023/03/18 03:50:04;;;;;;;28.08;15.60;;;;;;;10.20;100.00;100683.25;5058152;28;20029;-78
2023/03/18 03:52:31;;;;;;;32.22;16.70;;;;;;;10.21;100.00;100674.22;5051621;28;20029;-78
2023/03/18 03:54:56;;;;;;;33.63;16.85;;;;;;;10.21;100.00;100679.59;5052874;28;20060;-78
2023/03/18 03:57:23;;;;;;;29.85;16.60;;;;;;;10.21;100.00;100679.59;5056185;28;20029;-78
2023/03/18 03:59:49;;;;;;;31.85;17.27;;;;;;;10.19;100.00;100679.72;5049695;28;20113;-78
2023/03/18 04:02:16;;;;;;;29.05;16.13;;;;;;;10.18;100.00;100678.00;5059196;28;20048;-78
2023/03/18 04:04:42;;;;;;;28.48;15.68;;;;;;;10.18;100.00;100685.19;5051374;28;20084;-78
2023/03/18 04:07:08;;;;;;;32.22;16.40;;;;;;;10.17;100.00;100684.31;5047074;28;20028;-78
2023/03/18 04:09:35;;;;;;;36.70;16.85;;;;;;;10.16;100.00;100682.59;5056290;28;20536;-77
2023/03/18 04:12:01;;;;;;;30.48;15.60;;;;;;;10.18;100.00;100685.19;5054067;28;20028;-78
2023/03/18 04:14:26;;;;;;;31.65;17.35;;;;;;;10.17;100.00;100694.22;5061639;28;20020;-78
2023/03/18 04:16:51;;;;;;;28.77;16.60;;;;;;;10.17;100.00;100691.53;5055435;28;20028;-78
2023/03/18 04:19:17;;;;;;;30.30;15.90;;;;;;;10.15;100.00;100679.06;5065847;28;20132;-78
2023/03/18 04:21:43;;;;;;;30.02;15.90;;;;;;;10.16;100.00;100685.28;5059886;28;20060;-78
2023/03/18 04:24:09;;;;;;;30.15;15.98;;;;;;;10.14;100.00;100685.41;5053901;28;20088;-74
2023/03/18 04:26:35;;;;;;;29.45;15.63;;;;;;;10.15;100.00;100692.50;5048908;28;20055;-73
2023/03/18 04:29:00;;;;;;;26.98;16.52;;;;;;;10.14;100.00;100688.09;5061455;28;20430;-73
2023/03/18 04:31:25;;;;;;;28.10;16.88;;;;;;;10.14;100.00;100693.47;5056982;28;20443;-73
2023/03/18 04:33:51;;;;;;;32.75;17.33;;;;;;;10.15;100.00;100691.66;5061658;28;20079;-74
2023/03/18 04:36:16;;;;;;;30.05;16.70;;;;;;;10.14;100.00;100690.78;5059213;28;20037;-73
2023/03/18 04:38:41;;;;;;;30.67;17.08;;;;;;;10.15;100.00;100692.50;5060562;28;20029;-74
2023/03/18 04:41:07;;;;;;;31.63;17.58;;;;;;;10.14;100.00;100701.50;5056286;28;20025;-73
2023/03/18 04:43:32;;;;;;;31.23;16.98;;;;;;;10.14;100.00;100706.88;5062853;28;20437;-73
2023/03/18 04:45:58;;;;;;;27.75;16.35;;;;;;;10.13;100.00;100715.06;5048511;28;20021;-73
2023/03/18 04:48:23;;;;;;;30.45;17.15;;;;;;;10.14;100.00;100714.94;5052827;28;20441;-73
2023/03/18 04:50:49;;;;;;;31.35;18.02;;;;;;;10.13;100.00;100713.25;5042840;28;20026;-73
2023/03/18 04:53:14;;;;;;;31.90;17.17;;;;;;;10.14;100.00;100708.72;5053046;28;20451;-74
2023/03/18 04:55:40;;;;;;;33.33;18.30;;;;;;;10.13;100.00;100712.38;5054846;28;20582;-74
2023/03/18 04:58:05;;;;;;;31.58;17.45;;;;;;;10.13;100.00;100715.94;5054490;28;20081;-73
2023/03/18 05:00:30;;;;;;;34.28;16.58;;;;;;;10.13;100.00;100725.81;5055381;28;20108;-73
2023/03/18 05:02:56;;;;;;;29.85;16.75;;;;;;;10.12;100.00;100719.59;5061705;28;20085;-73
2023/03/18 05:05:21;;;;;;;28.02;17.80;;;;;;;10.12;100.00;100726.78;5059232;28;20016;-73
2023/03/18 05:07:47;;;;;;;33.20;17.10;;;;;;;10.11;100.00;100725.06;5063513;28;20029;-73
2023/03/18 05:10:12;;;;;;;29.67;17.10;;;;;;;10.10;100.00;100724.22;5047873;28;20108;-73
2023/03/18 05:12:37;;;;;;;30.73;17.33;;;;;;;10.09;100.00;100730.56;5059061;28;20016;-73
2023/03/18 05:15:04;;;;;;;31.48;17.35;;;;;;;10.09;100.00;100722.50;5058868;28;20101;-73
2023/03/18 05:17:29;;;;;;;31.20;17.05;;;;;;;10.10;100.00;100721.53;5059017;28;20418;-73
2023/03/18 05:19:55;;;;;;;27.63;16.40;;;;;;;10.08;100.00;100711.88;5059186;28;20107;-73
2023/03/18 05:22:20;;;;;;;29.75;17.08;;;;;;;10.08;100.00;100720.78;5059561;28;20091;-73
2023/03/18 05:24:47;;;;;;;32.22;17.08;;;;;;;10.08;100.00;100707.34;5062391;28;20032;-73
2023/03/18 05:27:15;;;;;;;28.48;15.35;;;;;;;10.07;100.00;100711.03;5052901;28;20553;-73
2023/03/18 05:29:41;;;;;;;30.55;16.88;;;;;;;10.07;100.00;100707.47;5050762;28;20078;-74
2023/03/18 05:32:07;;;;;;;30.63;16.48;;;;;;;10.07;100.00;100715.50;5053336;28;20159;-73
2023/03/18 05:34:33;;;;;;;30.00;16.38;;;;;;;10.03;100.00;100704.16;5054509;28;20022;-73
2023/03/18 05:36:59;;;;;;;31.17;16.20;;;;;;;10.02;100.00;100706.97;5057607;28;20032;-73
2023/03/18 05:39:25;;;;;;;28.95;16.73;;;;;;;10.00;100.00;100714.25;5056375;28;20038;-73
2023/03/18 05:41:50;;;;;;;32.85;17.10;;;;;;;10.00;100.00;100715.13;5052007;28;20027;-73
2023/03/18 05:44:15;;;;;;;31.38;17.80;;;;;;;9.98;100.00;100711.69;5057297;28;20147;-73
2023/03/18 05:46:41;;;;;;;31.13;17.08;;;;;;;9.96;100.00;100722.53;5059375;28;20032;-73
2023/03/18 05:49:07;;;;;;;29.60;16.10;;;;;;;9.92;100.00;100737.13;5059740;28;20035;-73
2023/03/18 05:51:33;;;;;;;30.38;17.35;;;;;;;9.90;100.00;100735.56;5058479;28;20342;-72
2023/03/18 05:53:58;;;;;;;30.60;16.70;;;;;;;9.87;100.00;100743.81;5057686;28;20028;-74
2023/03/18 05:56:24;;;;;;;31.70;17.08;;;;;;;9.85;100.00;100743.06;5059778;28;20025;-74
2023/03/18 05:58:50;;;;;;;31.73;15.90;;;;;;;9.84;100.00;100752.09;5059983;28;20108;-74
2023/03/18 06:01:16;;;;;;;28.25;17.15;;;;;;;9.82;100.00;100752.19;5055478;28;20035;-74
2023/03/18 06:03:41;;;;;;;28.75;15.73;;;;;;;9.79;100.00;100749.72;5053593;28;20431;-72
2023/03/18 06:06:07;;;;;;;36.60;17.98;;;;;;;9.78;100.00;100753.38;5052846;28;20115;-73
2023/03/18 06:08:33;;;;;;;30.13;16.98;;;;;;;9.77;100.00;100759.72;5052972;28;20029;-73
2023/03/18 06:10:58;;;;;;;30.95;16.38;;;;;;;9.75;100.00;100751.78;5052759;28;20032;-74
2023/03/18 06:13:24;;;;;;;35.65;16.90;;;;;;;9.72;100.00;100754.69;5055171;28;20044;-73
2023/03/18 06:15:55;;;;;;;28.88;15.73;;;;;;;9.69;100.00;100757.56;5049996;28;20071;-72
2023/03/18 06:18:21;;;;;;;29.05;16.17;;;;;;;9.67;100.00;100751.47;5059737;28;20712;-73
2023/03/18 06:20:46;;;;;;;29.48;16.27;;;;;;;9.65;100.00;100758.78;5049082;28;20080;-72
2023/03/18 06:23:13;;;;;;;27.13;16.13;;;;;;;9.60;100.00;100759.13;5059752;28;20024;-73
2023/03/18 06:25:40;;;;;;;29.17;15.52;;;;;;;9.60;100.00;100756.44;5055842;28;20119;-73
2023/03/18 06:28:06;;;;;;;27.83;16.08;;;;;;;9.58;100.00;100747.63;5054001;28;20052;-73
2023/03/18 06:30:32;;;;;;;28.45;16.02;;;;;;;9.56;100.00;100754.03;5063529;28;20080;-72
2023/03/18 06:32:58;;;;;;;29.73;15.98;;;;;;;9.56;100.00;100754.03;5063272;28;20476;-74
2023/03/18 06:35:26;;;;;;;28.77;16.65;;;;;;;9.53;100.00;100767.69;5044916;28;20039;-73
2023/03/18 06:37:52;;;;;;;28.63;15.15;;;;;;;9.54;100.00;100769.41;5051159;28;20105;-73
2023/03/18 06:40:17;;;;;;;27.55;14.25;;;;;;;9.54;100.00;100778.31;5061914;28;20064;-73
2023/03/18 06:42:43;;;;;;;29.45;15.27;;;;;;;9.56;100.00;100781.75;5060212;28;20520;-72
2023/03/18 06:45:09;;;;;;;30.48;15.43;;;;;;;9.56;100.00;100781.75;5046435;28;20029;-74
2023/03/18 06:47:35;;;;;;;29.80;17.20;;;;;;;9.58;100.00;100787.88;5062331;28;20384;-73
2023/03/18 06:50:00;;;;;;;30.48;15.70;;;;;;;9.58;100.00;100784.34;5056054;28;20027;-73
2023/03/18 06:52:27;;;;;;;28.88;16.67;;;;;;;9.58;100.00;100784.34;5059164;28;20028;-73
2023/03/18 06:54:52;;;;;;;30.80;15.82;;;;;;;9.59;100.00;100786.91;5052983;28;20104;-73
2023/03/18 06:57:19;;;;;;;29.55;15.57;;;;;;;9.61;100.00;100792.16;5059462;28;20033;-73
2023/03/18 06:59:44;;;;;;;32.83;16.95;;;;;;;9.62;100.00;100785.84;5051759;28;20529;-73
2023/03/18 07:02:11;;;;;;;30.85;17.67;;;;;;;9.64;100.00;100791.94;5058297;28;20036;-73
2023/03/18 07:04:36;;;;;;;32.75;18.40;;;;;;;9.65;100.00;100790.09;5047095;28;20061;-73
2023/03/18 07:07:01;;;;;;;31.45;17.27;;;;;;;9.66;100.00;100787.31;5061045;28;20033;-73
2023/03/18 07:09:27;;;;;;;30.45;17.13;;;;;;;9.67;100.00;100789.03;5062676;28;20020;-73
2023/03/18 07:11:52;;;;;;;29.52;16.33;;;;;;;9.68;100.00;100800.63;5051059;28;20021;-73
2023/03/18 07:14:18;;;;;;;29.50;17.98;;;;;;;9.71;100.00;100803.97;5054027;28;20044;-73
2023/03/18 07:16:43;;;;;;;29.50;17.85;;;;;;;9.73;100.00;100799.34;5053946;28;20052;-72
2023/03/18 07:19:10;;;;;;;29.13;16.73;;;;;;;9.74;100.00;100801.06;5041641;28;20060;-72
2023/03/18 07:21:35;;;;;;;30.55;17.90;;;;;;;9.75;100.00;100802.78;5058616;28;20487;-73
2023/03/18 07:24:02;;;;;;;28.88;16.35;;;;;;;9.76;100.00;100809.84;5066761;28;20031;-74
2023/03/18 07:26:28;;;;;;;28.33;16.38;;;;;;;9.79;100.00;100808.78;5061014;28;20126;-73
2023/03/18 07:28:53;;;;;;;31.20;17.30;;;;;;;9.82;100.00;100816.63;5056374;28;20524;-72
2023/03/18 07:31:18;;;;;;;29.63;17.40;;;;;;;9.84;100.00;100806.66;5060657;28;20137;-73
2023/03/18 07:33:45;;;;;;;29.80;17.85;;;;;;;9.86;100.00;100815.44;5064573;28;20042;-72
2023/03/18 07:36:10;;;;;;;34.13;18.40;;;;;;;9.89;100.00;100817.06;5053052;28;20024;-76
2023/03/18 07:38:35;;;;;;;29.55;17.55;;;;;;;9.94;100.00;100818.44;5050734;28;20051;-75
2023/03/18 07:41:01;;;;;;;30.02;18.33;;;;;;;9.97;100.00;100823.59;5042183;28;20033;-73
2023/03/18 07:43:26;;;;;;;28.48;17.25;;;;;;;10.00;100.00;100830.59;5046183;28;20100;-76
2023/03/18 07:45:52;;;;;;;28.83;16.42;;;;;;;10.03;100.00;100837.53;5043397;28;20099;-74
2023/03/18 07:48:18;;;;;;;28.88;17.48;;;;;;;10.06;100.00;100835.50;5053043;28;20072;-74
2023/03/18 07:50:43;;;;;;;32.05;15.82;;;;;;;10.09;100.00;100837.13;5060895;28;20025;-74
2023/03/18 07:53:09;;;;;;;33.45;17.05;;;;;;;10.13;100.00;100850.22;5053709;28;20028;-73
2023/03/18 07:55:34;;;;;;;28.25;15.52;;;;;;;10.17;100.00;100848.16;5065126;28;20036;-73
2023/03/18 07:58:00;;;;;;;28.27;14.55;;;;;;;10.22;100.00;100837.06;5065249;28;20443;-73
2023/03/18 08:00:26;;;;;;;27.60;15.50;;;;;;;10.24;100.00;100835.16;5055526;28;20040;-73
2023/03/18 08:02:51;;;;;;;25.83;14.70;;;;;;;10.27;100.00;100830.41;5052564;28;20472;-76
2023/03/18 08:05:18;;;;;;;26.42;13.25;;;;;;;10.31;100.00;100833.75;5067739;28;20025;-76
2023/03/18 08:07:44;;;;;;;26.50;14.38;;;;;;;10.36;100.00;100825.38;5069304;28;20021;-77
2023/03/18 08:10:10;;;;;;;23.90;12.32;;;;;;;10.40;100.00;100835.78;5077494;28;20400;-76
2023/03/18 08:12:36;;;;;;;26.38;13.77;;;;;;;10.46;100.00;100831.78;5085033;28;20400;-76
2023/03/18 08:15:02;;;;;;;25.75;12.48;;;;;;;10.48;100.00;100825.34;5080737;28;20036;-76
2023/03/18 08:17:27;;;;;;;26.23;12.25;;;;;;;10.53;100.00;100816.06;5085341;28;20031;-77
2023/03/18 08:19:52;;;;;;;25.55;12.80;;;;;;;10.60;100.00;100820.91;5083431;28;20055;-77
2023/03/18 08:22:18;;;;;;;25.77;12.00;;;;;;;10.64;100.00;100818.81;5075186;28;20028;-76
2023/03/18 08:24:44;;;;;;;24.33;12.00;;;;;;;10.69;100.00;100819.34;5074007;28;20115;-76
2023/03/18 08:27:09;;;;;;;26.58;10.77;;;;;;;10.75;100.00;100823.41;5069037;28;20087;-76
2023/03/18 08:29:35;;;;;;;23.58;10.30;;;;;;;10.80;100.00;100830.13;5076559;28;20020;-76
2023/03/18 08:32:00;;;;;;;25.02;10.98;;;;;;;10.87;100.00;100822.47;5061474;28;20241;-76
2023/03/18 08:34:26;;;;;;;21.98;10.48;;;;;;;10.94;100.00;100828.28;5065290;28;20392;-76
2023/03/18 08:36:52;;;;;;;22.77;11.55;;;;;;;11.00;100.00;100827.81;5051332;28;20029;-76
2023/03/18 08:39:17;;;;;;;22.20;11.38;;;;;;;11.06;100.00;100832.72;5070143;28;20036;-76
2023/03/18 08:41:42;;;;;;;23.95;9.80;;;;;;;11.13;100.00;100841.19;5069596;28;20024;-76
2023/03/18 08:44:09;;;;;;;22.48;11.05;;;;;;;11.17;100.00;100843.53;5046352;28;20488;-75
2023/03/18 08:46:35;;;;;;;23.02;10.27;;;;;;;11.24;100.00;100848.44;5056468;28;20203;-76
2023/03/18 08:49:00;;;;;;;23.38;10.57;;;;;;;11.28;100.00;100841.84;5063613;28;20112;-76
2023/03/18 08:51:27;;;;;;;22.17;10.38;;;;;;;11.35;100.00;100843.94;5058166;28;20033;-76
2023/03/18 08:53:53;;;;;;;23.65;10.20;;;;;;;11.40;100.00;100853.50;5052958;28;20022;-76
2023/03/18 08:56:19;;;;;;;23.67;10.70;;;;;;;11.40;100.00;100856.19;5055721;28;20031;-76
2023/03/18 08:58:44;;;;;;;22.92;10.23;;;;;;;11.42;100.00;100852.41;5068973;28;20036;-76
2023/03/18 09:01:10;;;;;;;22.45;9.52;;;;;;;11.42;100.00;100848.84;5060083;28;20148;-75
2023/03/18 09:03:36;;;;;;;22.23;10.73;;;;;;;11.46;100.00;100842.25;5065141;28;20056;-76
2023/03/18 09:06:02;;;;;;;23.15;9.48;;;;;;;11.48;100.00;100846.56;5062882;28;20067;-76
2023/03/18 09:08:29;;;;;;;20.88;9.55;;;;;;;11.51;100.00;100854.38;5062159;28;20051;-74
2023/03/18 09:10:55;;;;;;;24.00;9.52;;;;;;;11.54;100.00;100859.53;5054471;28;20190;-75
2023/03/18 09:13:21;;;;;;;22.25;9.43;;;;;;;11.59;100.00;100858.31;5063146;28;20041;-76
2023/03/18 09:15:47;;;;;;;22.05;9.50;;;;;;;11.63;100.00;100859.81;5068186;28;20610;-74
2023/03/18 09:18:15;;;;;;;22.20;10.43;;;;;;;11.64;100.00;100857.00;5069127;28;20111;-75
2023/03/18 09:20:41;;;;;;;21.50;8.40;;;;;;;11.65;100.00;100861.38;5067675;28;20029;-75
2023/03/18 09:23:07;;;;;;;27.42;9.82;;;;;;;11.67;100.00;100850.47;5063446;28;20119;-75
2023/03/18 09:25:33;;;;;;;22.55;8.55;;;;;;;11.71;100.00;100854.66;5061855;28;20476;-76
2023/03/18 09:27:59;;;;;;;22.10;8.52;;;;;;;11.73;100.00;100858.09;5066102;28;20220;-75
2023/03/18 09:30:26;;;;;;;19.27;7.60;;;;;;;11.76;100.00;100859.69;5064789;28;20025;-75
2023/03/18 09:32:52;;;;;;;19.52;7.85;;;;;;;11.79;100.00;100868.41;5063911;28;20456;-74
2023/03/18 09:35:18;;;;;;;19.42;7.10;;;;;;;11.85;100.00;100869.75;5054623;28;20029;-73
2023/03/18 09:37:43;;;;;;;20.25;7.85;;;;;;;11.92;100.00;100862.03;5064902;28;20078;-73
2023/03/18 09:40:20;;;;;;;20.33;7.95;;;;;;;11.96;100.00;100861.72;5064821;28;20060;-72
2023/03/18 09:42:58;;;;;;;22.45;8.35;;;;;;;12.05;100.00;100854.75;5042193;28;20103;-73
2023/03/18 09:45:40;;;;;;;20.35;7.18;;;;;;;12.12;100.00;100852.41;5049879;28;20068;-72
2023/03/18 09:48:21;;;;;;;19.58;7.43;;;;;;;12.21;100.00;100852.53;5059469;28;20079;-74
2023/03/18 09:51:24;;;;;;;19.05;6.95;;;;;;;12.30;100.00;100850.94;5054415;28;20094;-75
2023/03/18 09:53:57;;;;;;;21.48;7.28;;;;;;;12.41;99.18;100858.16;5050633;28;20033;-77
2023/03/18 09:56:27;;;;;;;14.38;5.47;;;;;;;12.49;98.90;100854.81;5065282;28;20039;-78
2023/03/18 09:59:15;;;;;;;21.50;6.95;;;;;;;12.55;99.11;100843.56;5061887;28;20028;-78
2023/03/18 10:01:43;;;;;;;19.50;5.65;;;;;;;12.61;96.98;100844.88;5069038;28;20036;-77
2023/03/18 10:04:17;;;;;;;16.55;5.60;;;;;;;12.69;97.97;100853.19;5061852;28;20021;-76
2023/03/18 10:06:43;;;;;;;17.45;5.38;;;;;;;12.71;94.91;100860.19;5065103;28;20455;-76
2023/03/18 10:09:19;;;;;;;17.05;5.68;;;;;;;12.75;95.79;100852.69;5055880;28;20049;-76
2023/03/18 10:11:47;;;;;;;16.45;4.38;;;;;;;12.82;94.40;100856.59;5042441;28;20032;-76
2023/03/18 10:14:34;;;;;;;14.70;4.55;;;;;;;12.92;96.08;100859.41;5058943;28;20033;-77
2023/03/18 10:17:11;;;;;;;18.90;5.82;;;;;;;13.02;92.51;100863.03;5052899;28;20108;-76
2023/03/18 10:19:42;;;;;;;18.23;5.35;;;;;;;13.16;92.82;100861.88;5054279;28;20061;-77
2023/03/18 10:22:31;;;;;;;19.05;5.53;;;;;;;13.21;93.61;100856.94;5056288;28;20033;-76
2023/03/18 10:25:05;;;;;;;15.23;4.95;;;;;;;13.27;91.48;100863.69;5055330;28;20106;-77
2023/03/18 10:27:41;;;;;;;11.68;4.28;;;;;;;13.28;89.97;100866.25;5058472;28;20029;-76
2023/03/18 10:30:57;;;;;;;15.43;5.25;;;;;;;13.32;90.57;100857.88;5059480;28;20045;-76
2023/03/18 10:33:45;;;;;;;16.08;5.05;;;;;;;13.35;92.02;100854.94;5040282;28;20037;-76
2023/03/18 10:36:49;;;;;;;13.80;4.57;;;;;;;13.41;92.31;100859.81;5019134;28;20040;-77
2023/03/18 10:39:17;;;;;;;12.40;3.97;;;;;;;13.51;89.06;100851.81;5028763;28;20064;-76
2023/03/18 10:41:48;;;;;;;15.95;4.63;;;;;;;13.56;88.82;100854.97;5026125;28;20040;-76
2023/03/18 10:44:29;;;;;;;15.48;4.78;;;;;;;13.56;88.70;100847.72;5026453;28;20551;-76
2023/03/18 10:47:06;;;;;;;14.70;4.03;;;;;;;13.54;85.35;100852.38;5041394;28;20536;-76
2023/03/18 10:49:39;;;;;;;13.70;4.28;;;;;;;13.55;86.96;100846.00;5042250;28;20116;-76
2023/03/18 10:52:32;;;;;;;20.40;4.63;;;;;;;13.51;86.95;100847.25;5026374;28;20044;-77
2023/03/18 10:54:58;;;;;;;9.05;3.10;;;;;;;13.47;85.52;100835.03;5016701;28;20069;-77
2023/03/18 10:57:24;;;;;;;10.32;3.30;;;;;;;13.46;84.56;100839.53;5037699;28;20067;-75
2023/03/18 10:59:50;;;;;;;19.08;4.50;;;;;;;13.52;85.18;100842.72;5020252;28;20025;-75
2023/03/18 11:02:25;;;;;;;12.00;3.78;;;;;;;13.58;83.95;100843.03;5024096;28;20105;-74
2023/03/18 11:05:14;;;;;;;15.73;3.85;;;;;;;13.62;87.46;100854.44;5014753;28;20041;-74
2023/03/18 11:08:03;;;;;;;14.55;3.63;;;;;;;13.62;87.98;100849.88;5049907;28;20100;-73
2023/03/18 11:10:34;;;;;;;12.38;4.03;;;;;;;13.64;85.93;100847.91;5040206;28;20431;-74
2023/03/18 11:13:01;;;;;;;10.35;3.33;;;;;;;13.63;85.82;100848.91;5043037;28;20060;-73